createdAt,value
2019-02-25T00:01:05.100Z,94.28
2019-02-25T00:04:11.245Z,94.57
2019-02-25T00:07:17.274Z,94.55
2019-02-25T00:10:23.126Z,94.51
2019-02-25T00:13:29.112Z,94.49
2019-02-25T00:16:34.863Z,94.41
2019-02-25T00:19:43.421Z,94.41
2019-02-25T00:22:49.668Z,94.25
2019-02-25T00:25:55.720Z,94.17
2019-02-25T00:29:01.656Z,94.11
2019-02-25T00:32:07.517Z,94.16
2019-02-25T00:35:23.615Z,94.22
2019-02-25T00:38:28.557Z,94.28
2019-02-25T00:41:33.228Z,94.32
2019-02-25T00:44:38.054Z,94.34
2019-02-25T00:47:43.171Z,94.32
2019-02-25T00:50:47.461Z,94.31
2019-02-25T00:53:52.065Z,94.41
2019-02-25T00:56:56.419Z,94.38
2019-02-25T01:00:00.724Z,94.36
2019-02-25T01:03:05.652Z,94.32
2019-02-25T01:06:09.975Z,94.00
2019-02-25T01:09:14.282Z,93.94
2019-02-25T01:12:18.580Z,94.13
2019-02-25T01:15:23.137Z,94.72
2019-02-25T01:18:27.438Z,95.87
2019-02-25T01:21:35.092Z,95.87
2019-02-25T01:24:39.403Z,96.54
2019-02-25T01:27:43.721Z,97.40
2019-02-25T01:30:48.012Z,97.55
2019-02-25T01:33:52.321Z,97.59
2019-02-25T01:36:56.874Z,97.61
2019-02-25T01:40:01.159Z,97.59
2019-02-25T01:43:05.446Z,97.49
2019-02-25T01:46:09.787Z,97.42
2019-02-25T01:49:14.141Z,97.38
2019-02-25T01:52:18.439Z,97.39
2019-02-25T01:55:22.773Z,97.48
2019-02-25T01:58:27.056Z,97.60
2019-02-25T02:01:31.366Z,97.72
2019-02-25T02:04:35.652Z,97.73
2019-02-25T02:07:39.932Z,97.66
2019-02-25T02:10:44.238Z,97.62
2019-02-25T02:13:48.519Z,97.63
2019-02-25T02:16:52.794Z,97.48
2019-02-25T02:19:57.083Z,97.08
2019-02-25T02:23:01.405Z,96.55
2019-02-25T02:26:05.709Z,96.63
2019-02-25T02:29:09.978Z,96.65
2019-02-25T02:32:14.284Z,96.64
2019-02-25T02:35:21.804Z,96.59
2019-02-25T02:38:26.345Z,96.62
2019-02-25T02:41:32.309Z,96.60
2019-02-25T02:44:37.756Z,96.68
2019-02-25T02:47:53.983Z,96.64
2019-02-25T02:50:59.742Z,96.59
2019-02-25T02:54:06.880Z,97.01
2019-02-25T02:57:11.449Z,97.22
2019-02-25T03:00:17.552Z,97.35
2019-02-25T03:03:21.908Z,97.39
2019-02-25T03:06:26.214Z,97.38
2019-02-25T03:09:30.521Z,97.35
2019-02-25T03:12:34.827Z,97.29
2019-02-25T03:15:39.127Z,97.25
2019-02-25T03:18:43.425Z,97.16
2019-02-25T03:21:47.727Z,97.09
2019-02-25T03:24:52.250Z,96.97
2019-02-25T03:27:56.592Z,96.97
2019-02-25T03:31:00.892Z,96.88
2019-02-25T03:34:05.330Z,96.71
2019-02-25T03:37:09.605Z,96.66
2019-02-25T03:40:15.811Z,96.56
2019-02-25T03:43:20.245Z,96.53
2019-02-25T03:46:24.566Z,96.50
2019-02-25T03:49:28.877Z,96.60
2019-02-25T03:52:33.173Z,96.55
2019-02-25T03:55:37.460Z,96.50
2019-02-25T03:58:41.772Z,96.51
2019-02-25T04:01:46.086Z,96.57
2019-02-25T04:04:50.397Z,96.56
2019-02-25T04:07:54.797Z,96.53
2019-02-25T04:11:02.129Z,96.48
2019-02-25T04:14:06.418Z,96.32
2019-02-25T04:17:10.739Z,96.26
2019-02-25T04:20:15.955Z,96.25
2019-02-25T04:23:20.248Z,96.21
2019-02-25T04:26:24.583Z,96.31
2019-02-25T04:29:28.859Z,96.87
2019-02-25T04:32:35.701Z,97.04
2019-02-25T04:35:40.013Z,97.07
2019-02-25T04:38:44.311Z,96.95
2019-02-25T04:41:48.629Z,96.82
2019-02-25T04:44:52.973Z,96.96
2019-02-25T04:47:57.327Z,97.03
2019-02-25T04:51:01.670Z,97.12
2019-02-25T04:54:07.693Z,96.90
2019-02-25T04:57:12.057Z,96.90
2019-02-25T05:00:17.466Z,97.05
2019-02-25T05:03:21.926Z,97.18
2019-02-25T05:06:29.278Z,97.46
2019-02-25T05:09:33.593Z,97.56
2019-02-25T05:12:38.868Z,97.81
2019-02-25T05:15:43.265Z,97.96
2019-02-25T05:18:47.536Z,97.83
2019-02-25T05:21:51.874Z,97.99
2019-02-25T05:24:56.264Z,98.19
2019-02-25T05:28:00.650Z,98.38
2019-02-25T05:31:04.937Z,98.50
2019-02-25T05:34:09.450Z,98.53
2019-02-25T05:37:13.737Z,98.40
2019-02-25T05:40:18.060Z,98.41
2019-02-25T05:43:22.450Z,98.42
2019-02-25T05:46:26.794Z,98.49
2019-02-25T05:49:31.071Z,98.52
2019-02-25T05:52:35.403Z,98.61
2019-02-25T05:55:39.715Z,98.66
2019-02-25T05:58:44.036Z,98.59
2019-02-25T06:01:48.323Z,98.37
2019-02-25T06:04:52.631Z,98.28
2019-02-25T06:07:58.147Z,98.31
2019-02-25T06:11:02.464Z,98.42
2019-02-25T06:14:06.816Z,98.58
2019-02-25T06:17:11.097Z,98.76
2019-02-25T06:20:15.633Z,98.82
2019-02-25T06:23:19.927Z,98.98
2019-02-25T06:26:24.208Z,99.72
2019-02-25T06:29:28.489Z,99.50
2019-02-25T06:32:32.825Z,99.62
2019-02-25T06:35:37.317Z,99.59
2019-02-25T06:38:41.603Z,99.61
2019-02-25T06:41:45.928Z,99.65
2019-02-25T06:44:50.205Z,99.74
2019-02-25T06:47:54.497Z,99.83
2019-02-25T06:50:58.812Z,99.82
2019-02-25T06:54:03.117Z,99.83
2019-02-25T06:57:07.470Z,99.80
2019-02-25T07:00:17.027Z,99.85
2019-02-25T07:03:21.361Z,99.84
2019-02-25T07:06:32.095Z,99.85
2019-02-25T07:09:58.885Z,99.87
2019-02-25T07:13:17.400Z,99.79
2019-02-25T07:16:27.973Z,99.76
2019-02-25T07:19:42.199Z,99.76
2019-02-25T07:23:11.847Z,99.82
2019-02-25T07:26:38.140Z,99.90
2019-02-25T07:30:04.249Z,99.90
2019-02-25T07:33:20.923Z,99.90
2019-02-25T07:36:53.336Z,99.95
2019-02-25T07:40:13.431Z,99.91
2019-02-25T07:43:27.955Z,99.87
2019-02-25T07:46:53.705Z,99.80
2019-02-25T07:50:07.407Z,99.82
2019-02-25T07:53:33.701Z,99.91
2019-02-25T07:56:55.612Z,99.78
2019-02-25T08:00:21.955Z,99.52
2019-02-25T08:04:00.631Z,99.36
2019-02-25T08:07:15.925Z,99.19
2019-02-25T08:10:39.140Z,99.09
2019-02-25T08:13:59.856Z,98.97
2019-02-25T08:17:25.216Z,98.60
2019-02-25T08:20:37.515Z,98.44
2019-02-25T08:23:58.985Z,98.51
2019-02-25T08:27:25.284Z,98.62
2019-02-25T08:30:46.794Z,98.37
2019-02-25T08:34:08.642Z,98.33
2019-02-25T08:37:49.670Z,98.43
2019-02-25T08:41:23.788Z,98.23
2019-02-25T08:44:36.964Z,97.78
2019-02-25T08:47:58.974Z,97.70
2019-02-25T08:51:03.298Z,97.17
2019-02-25T08:54:07.604Z,97.05
2019-02-25T08:57:12.259Z,96.93
2019-02-25T09:00:16.634Z,96.93
2019-02-25T09:03:20.922Z,96.88
2019-02-25T09:06:25.224Z,96.78
2019-02-25T09:09:29.633Z,96.73
2019-02-25T09:12:34.423Z,96.64
2019-02-25T09:15:38.734Z,96.47
2019-02-25T09:18:43.021Z,96.57
2019-02-25T09:21:47.365Z,96.58
2019-02-25T09:24:51.637Z,96.89
2019-02-25T09:27:55.968Z,96.97
2019-02-25T09:31:00.364Z,96.88
2019-02-25T09:34:04.671Z,96.61
2019-02-25T09:37:09.075Z,97.01
2019-02-25T09:40:15.044Z,97.16
2019-02-25T09:43:19.604Z,97.15
2019-02-25T09:46:24.213Z,97.49
2019-02-25T09:49:28.607Z,97.68
2019-02-25T09:52:32.888Z,97.63
2019-02-25T09:55:37.262Z,97.57
2019-02-25T09:58:41.563Z,97.52
2019-02-25T10:01:48.689Z,96.95
2019-02-25T10:04:53.069Z,96.88
2019-02-25T10:07:57.545Z,96.84
2019-02-25T10:11:01.987Z,96.88
2019-02-25T10:14:06.426Z,96.78
2019-02-25T10:17:10.747Z,96.61
2019-02-25T10:20:15.060Z,96.19
2019-02-25T10:23:22.431Z,95.87
2019-02-25T10:26:26.701Z,95.82
2019-02-25T10:29:31.003Z,96.16
2019-02-25T10:32:35.341Z,96.30
2019-02-25T10:35:39.647Z,96.34
2019-02-25T10:38:43.960Z,95.52
2019-02-25T10:41:48.303Z,95.15
2019-02-25T10:44:52.582Z,94.75
2019-02-25T10:47:58.788Z,93.79
2019-02-25T10:51:04.694Z,92.89
2019-02-25T10:54:09.118Z,92.18
2019-02-25T10:57:17.299Z,92.33
2019-02-25T11:00:21.816Z,91.76
2019-02-25T11:03:26.096Z,91.19
2019-02-25T11:06:32.399Z,90.17
2019-02-25T11:09:43.947Z,89.86
2019-02-25T11:12:48.007Z,88.89
2019-02-25T11:15:52.289Z,88.79
2019-02-25T11:19:00.795Z,88.45
2019-02-25T11:22:05.512Z,87.62
2019-02-25T11:25:13.278Z,87.72
2019-02-25T11:28:25.538Z,87.18
2019-02-25T11:31:26.331Z,86.40
2019-02-25T11:34:31.466Z,85.72
2019-02-25T11:37:35.661Z,85.71
2019-02-25T11:40:39.973Z,84.90
2019-02-25T11:43:46.424Z,84.77
2019-02-25T11:46:52.848Z,84.81
2019-02-25T11:49:57.193Z,84.93
2019-02-25T11:53:01.508Z,84.84
2019-02-25T11:56:05.807Z,84.69
2019-02-25T11:59:11.393Z,84.66
2019-02-25T12:02:25.290Z,84.62
2019-02-25T12:05:27.207Z,84.23
2019-02-25T12:08:31.600Z,84.04
2019-02-25T12:11:36.007Z,84.72
2019-02-25T12:14:40.292Z,83.96
2019-02-25T12:17:49.159Z,83.81
2019-02-25T12:20:53.646Z,83.95
2019-02-25T12:23:58.040Z,83.21
2019-02-25T12:27:02.437Z,83.00
2019-02-25T12:30:13.064Z,83.18
2019-02-25T12:33:17.479Z,82.97
2019-02-25T12:36:21.768Z,82.32
2019-02-25T12:39:26.053Z,82.04
2019-02-25T12:42:30.325Z,81.56
2019-02-25T12:45:34.703Z,81.18
2019-02-25T12:48:39.891Z,80.77
2019-02-25T12:51:44.286Z,80.10
2019-02-25T12:54:48.545Z,79.87
2019-02-25T12:57:52.843Z,78.84
2019-02-25T13:00:57.267Z,78.87
2019-02-25T13:04:01.570Z,79.12
2019-02-25T13:07:05.867Z,79.23
2019-02-25T13:10:11.985Z,79.21
2019-02-25T13:13:16.332Z,79.61
2019-02-25T13:16:20.776Z,79.16
2019-02-25T13:19:25.063Z,78.64
2019-02-25T13:22:29.383Z,78.67
2019-02-25T13:25:35.878Z,78.39
2019-02-25T13:28:40.176Z,78.50
2019-02-25T13:31:44.477Z,78.04
2019-02-25T13:34:50.492Z,77.95
2019-02-25T13:37:57.602Z,77.53
2019-02-25T13:41:02.221Z,77.17
2019-02-25T13:44:06.555Z,77.16
2019-02-25T13:47:10.837Z,77.12
2019-02-25T13:50:15.247Z,76.98
2019-02-25T13:53:22.655Z,77.07
2019-02-25T13:56:27.032Z,76.95
2019-02-25T13:59:31.331Z,76.45
2019-02-25T14:02:35.669Z,76.81
2019-02-25T14:05:40.056Z,76.03
2019-02-25T14:08:44.342Z,75.84
2019-02-25T14:11:48.657Z,75.58
2019-02-25T14:14:53.055Z,75.51
2019-02-25T14:17:57.368Z,75.12
2019-02-25T14:21:01.729Z,74.96
2019-02-25T14:24:06.208Z,74.87
2019-02-25T14:27:11.778Z,74.89
2019-02-25T14:30:20.579Z,74.95
2019-02-25T14:33:24.907Z,75.04
2019-02-25T14:36:29.333Z,74.92
2019-02-25T14:39:35.941Z,74.61
2019-02-25T14:42:44.623Z,74.57
2019-02-25T14:45:46.589Z,74.18
2019-02-25T14:48:52.194Z,74.56
2019-02-25T14:51:56.706Z,74.89
2019-02-25T14:55:02.248Z,74.86
2019-02-25T14:58:07.970Z,75.62
2019-02-25T15:01:13.057Z,76.20
2019-02-25T15:04:17.380Z,76.79
2019-02-25T15:07:21.775Z,76.96
2019-02-25T15:10:29.103Z,77.08
2019-02-25T15:13:33.391Z,77.30
2019-02-25T15:16:38.908Z,77.63
2019-02-25T15:19:43.200Z,77.54
2019-02-25T15:22:47.852Z,77.59
2019-02-25T15:25:52.155Z,77.83
2019-02-25T15:28:58.556Z,78.27
2019-02-25T15:32:02.512Z,78.38
2019-02-25T15:35:08.730Z,78.54
2019-02-25T15:38:13.181Z,78.82
2019-02-25T15:41:17.585Z,78.73
2019-02-25T15:44:21.997Z,78.72
2019-02-25T15:47:26.621Z,78.86
2019-02-25T15:50:31.163Z,78.53
2019-02-25T15:53:36.951Z,78.56
2019-02-25T15:56:41.526Z,78.09
2019-02-25T15:59:45.867Z,77.55
2019-02-25T16:02:52.238Z,77.69
2019-02-25T16:05:59.271Z,78.12
2019-02-25T16:09:03.826Z,78.42
2019-02-25T16:12:09.686Z,78.96
2019-02-25T16:15:15.239Z,79.36
2019-02-25T16:18:21.270Z,79.93
2019-02-25T16:21:26.609Z,80.41
2019-02-25T16:24:35.150Z,80.89
2019-02-25T16:27:40.786Z,81.34
2019-02-25T16:30:49.127Z,81.69
2019-02-25T16:33:57.690Z,81.89
2019-02-25T16:37:04.839Z,82.01
2019-02-25T16:40:11.015Z,82.13
2019-02-25T16:43:15.592Z,82.36
2019-02-25T16:46:20.734Z,82.47
2019-02-25T16:49:25.100Z,82.39
2019-02-25T16:52:30.091Z,82.29
2019-02-25T16:55:34.566Z,82.32
2019-02-25T16:58:39.128Z,82.31
2019-02-25T17:01:44.044Z,82.56
2019-02-25T17:04:48.538Z,83.02
2019-02-25T17:07:52.946Z,83.48
2019-02-25T17:10:57.893Z,83.75
2019-02-25T17:14:03.907Z,84.05
2019-02-25T17:17:08.805Z,84.27
2019-02-25T17:20:15.077Z,84.56
2019-02-25T17:23:19.681Z,84.78
2019-02-25T17:26:24.190Z,85.02
2019-02-25T17:29:29.140Z,84.94
2019-02-25T17:32:34.969Z,85.04
2019-02-25T17:35:39.554Z,84.93
2019-02-25T17:38:45.394Z,84.09
2019-02-25T17:41:52.916Z,84.18
2019-02-25T17:44:59.721Z,84.25
2019-02-25T17:48:08.066Z,84.06
2019-02-25T17:51:10.327Z,83.86
2019-02-25T17:54:16.409Z,83.32
2019-02-25T17:57:20.882Z,83.34
2019-02-25T18:00:35.050Z,83.12
2019-02-25T18:03:39.641Z,83.20
2019-02-25T18:06:45.085Z,83.19
2019-02-25T18:09:49.789Z,83.05
2019-02-25T18:12:56.386Z,83.32
2019-02-25T18:16:01.071Z,83.04
2019-02-25T18:19:05.627Z,83.18
2019-02-25T18:22:11.640Z,83.08
2019-02-25T18:25:20.494Z,83.18
2019-02-25T18:28:23.449Z,82.90
2019-02-25T18:31:28.232Z,82.61
2019-02-25T18:34:34.431Z,82.64
2019-02-25T18:37:40.196Z,82.51
2019-02-25T18:40:46.317Z,82.40
2019-02-25T18:43:53.071Z,82.19
2019-02-25T18:46:59.782Z,82.21
2019-02-25T18:50:06.084Z,82.47
2019-02-25T18:53:18.782Z,82.53
2019-02-25T18:56:24.507Z,82.62
2019-02-25T18:59:29.123Z,82.41
2019-02-25T19:02:34.341Z,82.28
2019-02-25T19:05:39.862Z,82.21
2019-02-25T19:08:45.331Z,81.82
2019-02-25T19:11:51.212Z,81.66
2019-02-25T19:15:00.602Z,81.58
2019-02-25T19:18:06.878Z,81.79
2019-02-25T19:21:12.599Z,81.83
2019-02-25T19:24:18.287Z,81.77
2019-02-25T19:27:24.731Z,81.58
2019-02-25T19:30:31.740Z,81.46
2019-02-25T19:33:37.058Z,80.98
2019-02-25T19:36:43.659Z,80.84
2019-02-25T19:39:51.564Z,81.07
2019-02-25T19:42:59.241Z,81.18
2019-02-25T19:46:06.322Z,81.17
2019-02-25T19:49:12.028Z,81.29
2019-02-25T19:52:17.668Z,81.11
2019-02-25T19:55:23.455Z,81.29
2019-02-25T19:58:32.947Z,81.30
2019-02-25T20:01:34.401Z,81.27
2019-02-25T20:04:40.058Z,81.54
2019-02-25T20:07:46.165Z,81.48
2019-02-25T20:10:54.310Z,81.63
2019-02-25T20:14:00.925Z,81.74
2019-02-25T20:17:04.217Z,81.77
2019-02-25T20:20:11.157Z,82.05
2019-02-25T20:23:20.251Z,82.44
2019-02-25T20:26:26.907Z,82.66
2019-02-25T20:29:31.458Z,83.01
2019-02-25T20:32:36.471Z,83.43
2019-02-25T20:35:44.991Z,83.69
2019-02-25T20:38:48.776Z,83.90
2019-02-25T20:41:54.363Z,84.16
2019-02-25T20:45:00.622Z,84.39
2019-02-25T20:48:06.232Z,84.35
2019-02-25T20:51:12.678Z,84.60
2019-02-25T20:54:21.051Z,84.72
2019-02-25T20:57:25.825Z,84.95
2019-02-25T21:00:30.450Z,85.29
2019-02-25T21:03:34.968Z,85.81
2019-02-25T21:06:43.946Z,86.32
2019-02-25T21:09:49.892Z,86.92
2019-02-25T21:12:55.186Z,87.11
2019-02-25T21:16:02.462Z,87.22
2019-02-25T21:19:08.117Z,87.51
2019-02-25T21:22:13.886Z,87.75
2019-02-25T21:25:22.161Z,87.79
2019-02-25T21:28:27.352Z,87.42
2019-02-25T21:31:31.124Z,87.26
2019-02-25T21:34:35.787Z,87.59
2019-02-25T21:37:43.387Z,87.70
2019-02-25T21:40:48.283Z,87.77
2019-02-25T21:43:54.062Z,88.20
2019-02-25T21:47:01.098Z,89.49
2019-02-25T21:50:07.428Z,89.88
2019-02-25T21:53:13.869Z,90.37
2019-02-25T21:56:18.903Z,90.53
2019-02-25T21:59:24.096Z,90.72
2019-02-25T22:02:28.509Z,91.08
2019-02-25T22:05:32.973Z,91.37
2019-02-25T22:08:37.305Z,91.78
2019-02-25T22:11:41.619Z,91.81
2019-02-25T22:14:47.685Z,92.20
2019-02-25T22:17:53.409Z,92.41
2019-02-25T22:20:58.071Z,92.53
2019-02-25T22:24:04.912Z,92.58
2019-02-25T22:27:08.745Z,92.99
2019-02-25T22:30:15.005Z,92.96
2019-02-25T22:33:26.807Z,93.21
2019-02-25T22:36:26.056Z,93.29
2019-02-25T22:39:31.978Z,93.51
2019-02-25T22:42:36.370Z,93.34
2019-02-25T22:45:42.031Z,93.62
2019-02-25T22:48:47.334Z,93.96
2019-02-25T22:51:55.744Z,94.07
2019-02-25T22:54:58.525Z,94.20
2019-02-25T22:58:06.040Z,94.34
2019-02-25T23:01:17.540Z,94.36
2019-02-25T23:04:21.920Z,94.31
2019-02-25T23:07:26.407Z,94.28
2019-02-25T23:10:30.692Z,94.53
2019-02-25T23:13:35.805Z,94.45
2019-02-25T23:16:41.531Z,94.71
2019-02-25T23:19:48.114Z,94.74
2019-02-25T23:22:56.894Z,94.71
2019-02-25T23:26:01.977Z,94.65
2019-02-25T23:29:06.324Z,94.60
2019-02-25T23:32:11.424Z,94.55
2019-02-25T23:35:18.267Z,94.39
2019-02-25T23:38:23.040Z,94.23
2019-02-25T23:41:31.886Z,94.00
2019-02-25T23:44:34.726Z,93.95
2019-02-25T23:47:40.028Z,93.94
2019-02-25T23:50:48.492Z,93.71
2019-02-25T23:53:51.287Z,93.57
2019-02-25T23:56:57.881Z,93.53
